Country Terrace, Indiana
Current Conditions -  °F | °C
As of 7:53 PM on Monday 20 Oct 2014 (Local Time) from KMIE Reporting Station
Broken Clouds Broken Clouds  
Wind Chill: 57°   Ceiling: 6000
Heat Index: 57°   Visibility: 10mi
Dew Point: 50°   Wind: 6mph
Humidity: 77%   Direction: 300°WNW
Pressure: 29.88"   Gusts: NA
Location:  40.2763°N, 85.3769°W
Report Text: KMIE 202353Z 30005KT 10SM SCT046 BKN060 BKN090 14/10 A2988 RMK AO2 RAB04E33 SLP114 P0001 60001 T01390100 10183 20133 53019
Loading
Personal Weather Stations






























Interactive Weather Map
Tropical Storm Tracking
New forecast layout! Learn more

10-Day Weather Forecast

Advertisements
Track Severe Weather on mobile